Time;durP1;ratioP1;P1;durP2;ratioP2;P2;SDS_P1;SDS_P2;PMS_P1;PMS_P2;Temp;Humidity;BMP_temperature;BMP_pressure;BME280_temperature;BME280_humidity;BME280_pressure;Samples;Min_cycle;Max_cycle;Signal;HPM_P1;HPM_P2
2022/01/28 00:02:35;;;;;;;4.97;1.85;;;;;;;;;;5048597;28;20087;-66
2022/01/28 00:04:56;;;;;;;5.63;2.20;;;;;;;;;;5048451;28;20420;-66
2022/01/28 00:07:23;;;;;;;7.30;1.70;;;;;;;;;;5047894;28;20041;-66
2022/01/28 00:09:49;;;;;;;7.35;2.22;;;;;;;;;;5030746;28;20091;-66
2022/01/28 00:12:15;;;;;;;5.15;1.45;;;;;;;;;;5048188;28;20045;-67
2022/01/28 00:14:53;;;;;;;5.95;1.58;;;;;;;;;;5047893;28;20055;-66
2022/01/28 00:37:01;;;;;;;4.35;1.50;;;;;;;;;;5048087;28;20056;-66
2022/01/28 00:39:28;;;;;;;4.50;1.65;;;;;;;;;;5047897;28;20545;-66
2022/01/28 00:41:54;;;;;;;4.72;1.40;;;;;;;;;;5047838;28;20041;-66
2022/01/28 00:44:20;;;;;;;5.07;1.90;;;;;;;;;;5047606;28;20056;-67
2022/01/28 00:46:46;;;;;;;5.40;1.73;;;;;;;;;;5047732;28;20115;-66
2022/01/28 00:49:12;;;;;;;5.38;1.80;;;;;;;;;;5047888;28;20037;-66
2022/01/28 00:51:38;;;;;;;5.55;1.70;;;;;;;;;;5048150;28;20049;-66
2022/01/28 00:54:04;;;;;;;6.65;1.73;;;;;;;;;;5047310;28;20091;-67
2022/01/28 00:56:30;;;;;;;7.45;1.95;;;;;;;;;;5047853;28;20045;-67
2022/01/28 00:58:56;;;;;;;9.98;2.05;;;;;;;;;;5047380;28;20041;-66
2022/01/28 01:01:22;;;;;;;6.35;2.00;;;;;;;;;;5047724;28;20122;-67
2022/01/28 01:03:48;;;;;;;6.10;1.65;;;;;;;;;;5047688;28;20056;-66
2022/01/28 01:06:14;;;;;;;11.40;1.77;;;;;;;;;;5047523;28;20183;-66
2022/01/28 01:08:40;;;;;;;9.02;2.00;;;;;;;;;;5030110;28;20053;-66
2022/01/28 01:11:07;;;;;;;7.07;1.90;;;;;;;;;;5047248;28;20056;-66
2022/01/28 01:13:37;;;;;;;7.50;1.70;;;;;;;;;;5050465;28;20052;-66
2022/01/28 01:16:08;;;;;;;5.20;1.70;;;;;;;;;;5049929;28;20744;-66
2022/01/28 01:18:44;;;;;;;5.60;1.63;;;;;;;;;;5051735;28;20458;-66
2022/01/28 01:21:16;;;;;;;6.05;1.70;;;;;;;;;;5051948;28;20048;-65
2022/01/28 01:23:50;;;;;;;4.22;1.25;;;;;;;;;;5051077;28;20491;-65
2022/01/28 01:26:16;;;;;;;7.47;1.92;;;;;;;;;;5050772;28;20542;-66
2022/01/28 01:28:43;;;;;;;5.93;1.10;;;;;;;;;;5033750;28;20045;-66
2022/01/28 01:31:13;;;;;;;6.72;1.60;;;;;;;;;;5050149;28;20131;-66
2022/01/28 01:34:09;;;;;;;6.65;1.75;;;;;;;;;;5051764;28;20138;-66
2022/01/28 01:36:25;;;;;;;6.25;1.45;;;;;;;;;;5051490;28;20051;-66
2022/01/28 01:38:52;;;;;;;5.90;1.50;;;;;;;;;;5051741;28;20426;-66
2022/01/28 01:41:28;;;;;;;5.13;1.80;;;;;;;;;;5051168;28;20124;-66
2022/01/28 01:44:00;;;;;;;4.53;1.40;;;;;;;;;;5051493;28;20041;-66
2022/01/28 01:46:43;;;;;;;4.68;1.38;;;;;;;;;;5051632;28;20116;-66
2022/01/28 01:52:06;;;;;;;4.75;1.33;;;;;;;;;;5050375;28;20076;-66
2022/01/28 01:54:35;;;;;;;5.63;1.85;;;;;;;;;;5050053;28;20411;-67
2022/01/28 01:57:02;;;;;;;5.97;1.70;;;;;;;;;;5051376;28;20063;-67
2022/01/28 01:59:28;;;;;;;5.80;1.58;;;;;;;;;;5051853;28;20075;-67
2022/01/28 02:01:54;;;;;;;4.80;1.25;;;;;;;;;;5051300;28;20041;-67
2022/01/28 02:04:20;;;;;;;7.55;1.90;;;;;;;;;;5051057;28;20131;-67
2022/01/28 02:06:46;;;;;;;4.95;1.70;;;;;;;;;;5051324;28;20048;-67
2022/01/28 02:09:13;;;;;;;4.90;1.33;;;;;;;;;;5050022;28;20503;-67
2022/01/28 02:11:42;;;;;;;6.28;2.28;;;;;;;;;;5051428;28;20052;-67
2022/01/28 02:14:09;;;;;;;5.43;1.58;;;;;;;;;;5049016;28;20049;-67
2022/01/28 02:16:35;;;;;;;4.93;1.38;;;;;;;;;;5050871;28;20045;-67
2022/01/28 02:19:01;;;;;;;5.28;1.70;;;;;;;;;;5032563;28;20581;-67
2022/01/28 02:21:27;;;;;;;5.15;1.50;;;;;;;;;;5050982;28;20410;-67
2022/01/28 02:24:00;;;;;;;5.68;1.75;;;;;;;;;;5050768;28;20045;-67
2022/01/28 02:26:26;;;;;;;5.93;1.40;;;;;;;;;;5050257;28;20441;-67
2022/01/28 02:28:56;;;;;;;5.40;1.33;;;;;;;;;;5050398;28;20049;-66
2022/01/28 02:31:25;;;;;;;5.55;1.40;;;;;;;;;;5048800;28;20387;-67
2022/01/28 02:33:55;;;;;;;5.70;1.63;;;;;;;;;;5050131;28;20053;-67
2022/01/28 02:36:21;;;;;;;5.05;1.50;;;;;;;;;;5048802;28;20088;-66
2022/01/28 02:38:47;;;;;;;6.75;1.70;;;;;;;;;;5050863;28;20053;-67
2022/01/28 02:41:13;;;;;;;7.28;1.65;;;;;;;;;;5049667;28;20415;-67
2022/01/28 02:44:00;;;;;;;5.88;1.40;;;;;;;;;;5050582;28;20513;-67
2022/01/28 02:46:29;;;;;;;5.63;1.25;;;;;;;;;;5050864;28;20095;-67
2022/01/28 02:49:03;;;;;;;8.50;1.75;;;;;;;;;;5048833;28;20076;-68
2022/01/28 02:51:29;;;;;;;11.82;1.70;;;;;;;;;;5050771;28;20490;-66
2022/01/28 02:53:59;;;;;;;9.38;1.67;;;;;;;;;;5050375;28;20049;-67
2022/01/28 02:56:39;;;;;;;8.57;2.65;;;;;;;;;;5050260;28;20064;-67
2022/01/28 02:59:06;;;;;;;5.40;1.73;;;;;;;;;;5050534;28;20452;-66
2022/01/28 03:01:32;;;;;;;5.80;1.83;;;;;;;;;;5048830;28;20045;-66
2022/01/28 03:04:01;;;;;;;5.93;1.73;;;;;;;;;;5048892;28;20132;-67
2022/01/28 03:06:27;;;;;;;5.45;1.55;;;;;;;;;;5050075;28;20053;-66
2022/01/28 03:08:58;;;;;;;5.63;1.75;;;;;;;;;;5050029;28;20049;-67
2022/01/28 03:16:41;;;;;;;6.50;2.72;;;;;;;;;;5050068;28;20056;-67
2022/01/28 03:19:29;;;;;;;5.88;2.00;;;;;;;;;;5049844;28;20049;-66
2022/01/28 03:21:56;;;;;;;5.65;1.80;;;;;;;;;;5050147;28;20053;-66
2022/01/28 03:24:23;;;;;;;5.22;1.80;;;;;;;;;;5050089;28;20179;-67
2022/01/28 03:26:52;;;;;;;4.85;1.08;;;;;;;;;;5047904;28;20547;-67
2022/01/28 03:29:18;;;;;;;5.40;1.95;;;;;;;;;;5049784;28;20044;-67
2022/01/28 03:31:44;;;;;;;6.57;1.90;;;;;;;;;;5049414;28;20746;-67
2022/01/28 03:34:13;;;;;;;4.60;1.65;;;;;;;;;;5049176;28;20064;-67
2022/01/28 03:36:39;;;;;;;4.32;1.50;;;;;;;;;;5048110;28;20075;-67
2022/01/28 03:39:08;;;;;;;5.60;1.73;;;;;;;;;;5049142;28;20127;-67
2022/01/28 03:41:34;;;;;;;4.93;1.52;;;;;;;;;;5049725;28;20045;-66
2022/01/28 03:44:00;;;;;;;6.28;1.90;;;;;;;;;;5049715;28;20136;-67
2022/01/28 03:46:27;;;;;;;5.38;1.60;;;;;;;;;;5049568;28;20132;-67
2022/01/28 03:48:53;;;;;;;7.00;1.75;;;;;;;;;;5049052;28;20048;-67
2022/01/28 03:51:20;;;;;;;4.80;1.33;;;;;;;;;;5048798;28;20080;-67
2022/01/28 03:53:46;;;;;;;4.88;1.40;;;;;;;;;;5049243;28;20478;-67
2022/01/28 03:56:12;;;;;;;5.47;1.40;;;;;;;;;;5048926;28;20091;-66
2022/01/28 03:58:38;;;;;;;5.43;1.33;;;;;;;;;;5048266;28;20449;-67
2022/01/28 04:01:10;;;;;;;6.05;1.65;;;;;;;;;;5049012;28;20055;-66
2022/01/28 04:13:54;;;;;;;5.68;1.60;;;;;;;;;;5048995;28;20053;-67
2022/01/28 04:18:47;;;;;;;3.08;1.35;;;;;;;;;;5048351;28;20048;-65
2022/01/28 04:21:13;;;;;;;5.55;1.67;;;;;;;;;;5048172;28;20414;-65
2022/01/28 04:23:39;;;;;;;4.55;1.63;;;;;;;;;;5048022;28;20538;-65
2022/01/28 04:26:05;;;;;;;4.68;1.25;;;;;;;;;;5047947;28;20051;-64
2022/01/28 04:28:31;;;;;;;3.65;1.27;;;;;;;;;;5048027;28;20071;-64
2022/01/28 04:30:57;;;;;;;3.97;1.35;;;;;;;;;;5048006;28;20056;-65
2022/01/28 04:33:23;;;;;;;6.80;1.90;;;;;;;;;;5047877;28;20438;-64
2022/01/28 04:35:53;;;;;;;6.03;1.63;;;;;;;;;;5048013;28;20049;-64
2022/01/28 04:39:25;;;;;;;4.75;1.50;;;;;;;;;;5046304;28;20088;-65
2022/01/28 04:41:23;;;;;;;4.88;1.60;;;;;;;;;;5042880;28;20454;-64
2022/01/28 04:43:57;;;;;;;6.57;1.52;;;;;;;;;;5047479;28;20116;-65
2022/01/28 04:46:38;;;;;;;3.90;1.30;;;;;;;;;;5047599;28;20045;-65
2022/01/28 04:49:30;;;;;;;5.03;1.30;;;;;;;;;;5047605;28;20412;-65
2022/01/28 04:52:44;;;;;;;6.25;1.73;;;;;;;;;;5047976;28;20107;-65
2022/01/28 04:57:35;;;;;;;4.90;1.40;;;;;;;;;;5046814;28;20159;-67
2022/01/28 05:05:15;;;;;;;5.32;1.60;;;;;;;;;;5047564;28;20463;-67
2022/01/28 05:10:58;;;;;;;7.05;1.50;;;;;;;;;;5046100;28;20045;-67
2022/01/28 05:28:53;;;;;;;3.78;1.23;;;;;;;;;;5047439;28;20409;-67
2022/01/28 05:31:19;;;;;;;4.88;1.30;;;;;;;;;;5047929;28;20427;-67
2022/01/28 05:33:45;;;;;;;5.05;1.40;;;;;;;;;;5047939;28;20095;-67
2022/01/28 05:36:12;;;;;;;4.63;1.38;;;;;;;;;;5048102;28;20121;-67
2022/01/28 05:38:38;;;;;;;5.07;1.73;;;;;;;;;;5047582;28;20037;-67
2022/01/28 05:41:04;;;;;;;4.00;1.30;;;;;;;;;;5047747;28;20049;-67
2022/01/28 05:43:30;;;;;;;6.32;1.65;;;;;;;;;;5047779;28;20049;-67
2022/01/28 05:45:56;;;;;;;5.00;1.65;;;;;;;;;;5029508;28;20045;-66
2022/01/28 05:48:22;;;;;;;8.18;1.80;;;;;;;;;;5047979;28;20041;-67
2022/01/28 05:50:48;;;;;;;3.53;1.30;;;;;;;;;;5048018;28;20475;-68
2022/01/28 05:53:15;;;;;;;6.38;2.33;;;;;;;;;;5047552;28;20041;-68
2022/01/28 05:55:41;;;;;;;6.00;1.70;;;;;;;;;;5047187;28;20106;-66
2022/01/28 05:58:07;;;;;;;10.70;1.85;;;;;;;;;;5047054;28;20132;-66
2022/01/28 06:00:33;;;;;;;7.13;1.70;;;;;;;;;;5050540;28;20045;-67
2022/01/28 06:02:59;;;;;;;9.77;1.65;;;;;;;;;;5049432;28;20049;-66
2022/01/28 06:05:30;;;;;;;7.88;1.90;;;;;;;;;;5051061;28;20049;-66
2022/01/28 06:07:57;;;;;;;8.57;1.75;;;;;;;;;;5050753;28;20159;-66
2022/01/28 06:10:23;;;;;;;19.15;2.63;;;;;;;;;;5049048;28;20128;-66
2022/01/28 06:12:49;;;;;;;4.47;1.27;;;;;;;;;;5049063;28;20087;-66
2022/01/28 06:15:15;;;;;;;7.32;1.77;;;;;;;;;;5050478;28;20052;-66
2022/01/28 06:17:41;;;;;;;3.75;1.42;;;;;;;;;;5050843;28;20415;-68
2022/01/28 06:20:09;;;;;;;7.78;1.85;;;;;;;;;;5051205;28;20517;-67
2022/01/28 06:22:38;;;;;;;14.13;2.00;;;;;;;;;;5050739;28;20040;-66
2022/01/28 06:25:05;;;;;;;9.73;1.88;;;;;;;;;;5049769;28;20410;-66
2022/01/28 06:27:31;;;;;;;13.07;1.80;;;;;;;;;;5049897;28;20392;-66
2022/01/28 06:29:57;;;;;;;9.48;1.80;;;;;;;;;;5032843;28;20132;-66
2022/01/28 06:32:23;;;;;;;11.00;2.15;;;;;;;;;;5049770;28;20064;-66
2022/01/28 06:34:49;;;;;;;5.43;1.65;;;;;;;;;;5050769;28;20057;-66
2022/01/28 06:37:15;;;;;;;11.25;2.47;;;;;;;;;;5049359;28;20090;-66
2022/01/28 06:39:41;;;;;;;8.15;1.67;;;;;;;;;;5032792;28;20076;-66
2022/01/28 06:42:07;;;;;;;8.27;2.15;;;;;;;;;;5049224;28;20391;-66
2022/01/28 06:44:33;;;;;;;7.85;1.60;;;;;;;;;;5050584;28;20069;-66
2022/01/28 06:46:59;;;;;;;10.63;1.70;;;;;;;;;;5050461;28;20045;-66
2022/01/28 06:49:25;;;;;;;7.45;2.25;;;;;;;;;;5050126;28;20617;-66
2022/01/28 06:51:51;;;;;;;7.07;1.83;;;;;;;;;;5049775;28;20037;-65
2022/01/28 06:54:17;;;;;;;9.25;1.90;;;;;;;;;;5032215;28;20059;-66
2022/01/28 06:56:44;;;;;;;6.78;1.63;;;;;;;;;;5050415;28;20277;-66
2022/01/28 06:59:11;;;;;;;5.65;1.40;;;;;;;;;;5050229;28;20048;-66
2022/01/28 07:01:37;;;;;;;4.38;1.45;;;;;;;;;;5049596;28;20155;-65
2022/01/28 07:04:03;;;;;;;6.70;1.60;;;;;;;;;;5050083;28;20390;-65
2022/01/28 07:06:30;;;;;;;7.93;1.90;;;;;;;;;;5050064;28;20533;-66
2022/01/28 07:08:56;;;;;;;5.30;1.40;;;;;;;;;;5049788;28;20081;-65
2022/01/28 07:11:22;;;;;;;4.55;1.30;;;;;;;;;;5049158;28;20146;-66
2022/01/28 07:13:48;;;;;;;6.63;1.45;;;;;;;;;;5049605;28;20051;-65
2022/01/28 07:16:14;;;;;;;6.47;1.67;;;;;;;;;;5050011;28;20128;-66
2022/01/28 07:18:40;;;;;;;5.65;1.58;;;;;;;;;;5049937;28;20427;-66
2022/01/28 07:21:06;;;;;;;6.22;1.75;;;;;;;;;;5050047;28;20041;-66
2022/01/28 07:23:32;;;;;;;7.13;1.83;;;;;;;;;;5049487;28;20041;-66
2022/01/28 07:25:58;;;;;;;9.00;1.70;;;;;;;;;;5049712;28;20155;-66
2022/01/28 07:28:25;;;;;;;6.47;1.55;;;;;;;;;;5050154;28;20155;-67
2022/01/28 07:30:52;;;;;;;10.10;1.92;;;;;;;;;;5049736;28;20065;-66
2022/01/28 07:33:18;;;;;;;10.90;2.42;;;;;;;;;;5049530;28;20563;-66
2022/01/28 07:35:44;;;;;;;7.38;1.45;;;;;;;;;;5049476;28;20608;-67
2022/01/28 07:38:10;;;;;;;6.60;1.90;;;;;;;;;;5031771;28;20075;-67
2022/01/28 07:40:36;;;;;;;8.73;1.60;;;;;;;;;;5049794;28;20458;-66
2022/01/28 07:43:02;;;;;;;5.45;1.70;;;;;;;;;;5049395;28;20423;-66
2022/01/28 07:45:28;;;;;;;6.70;1.77;;;;;;;;;;5048439;28;20128;-66
2022/01/28 07:47:54;;;;;;;8.48;1.92;;;;;;;;;;5049487;28;20068;-66
2022/01/28 07:50:20;;;;;;;5.07;1.40;;;;;;;;;;5047897;28;20406;-66
2022/01/28 07:52:46;;;;;;;6.55;1.90;;;;;;;;;;5048949;28;20463;-66
2022/01/28 07:55:14;;;;;;;7.90;1.73;;;;;;;;;;5049141;28;20060;-66
2022/01/28 07:57:40;;;;;;;7.35;1.90;;;;;;;;;;5049213;28;20049;-66
2022/01/28 08:00:08;;;;;;;4.90;1.65;;;;;;;;;;5047663;28;20084;-65
2022/01/28 08:02:34;;;;;;;6.10;1.58;;;;;;;;;;5048855;28;20137;-66
2022/01/28 08:05:00;;;;;;;5.97;1.40;;;;;;;;;;5049167;28;20060;-67
2022/01/28 08:07:26;;;;;;;7.95;1.75;;;;;;;;;;5049022;28;20158;-67
2022/01/28 08:09:52;;;;;;;7.90;1.45;;;;;;;;;;5048808;28;20497;-67
2022/01/28 08:12:19;;;;;;;4.90;1.35;;;;;;;;;;5047659;28;20052;-66
2022/01/28 08:14:45;;;;;;;6.72;1.42;;;;;;;;;;5046941;28;20060;-67
2022/01/28 08:17:11;;;;;;;7.82;1.65;;;;;;;;;;5047405;28;20049;-68
2022/01/28 08:19:37;;;;;;;8.25;1.60;;;;;;;;;;5047486;28;20052;-67
2022/01/28 08:22:04;;;;;;;7.50;1.58;;;;;;;;;;5048164;28;20470;-66
2022/01/28 08:24:30;;;;;;;4.60;1.70;;;;;;;;;;5048795;28;20411;-69
2022/01/28 08:26:56;;;;;;;9.35;2.13;;;;;;;;;;5047184;28;20509;-67
2022/01/28 08:29:22;;;;;;;9.73;1.73;;;;;;;;;;5048682;28;20133;-67
2022/01/28 08:31:50;;;;;;;10.10;1.85;;;;;;;;;;5048344;28;20383;-67
2022/01/28 08:34:16;;;;;;;11.65;2.47;;;;;;;;;;5048486;28;20133;-67
2022/01/28 08:36:42;;;;;;;17.63;2.22;;;;;;;;;;5048628;28;20087;-67
2022/01/28 08:39:10;;;;;;;7.25;2.00;;;;;;;;;;5047877;28;20060;-67
2022/01/28 08:41:39;;;;;;;7.90;2.38;;;;;;;;;;5048383;28;20093;-68
2022/01/28 08:44:05;;;;;;;8.90;2.67;;;;;;;;;;5048316;28;20052;-68
2022/01/28 08:46:31;;;;;;;8.98;2.20;;;;;;;;;;5048486;28;20128;-67
2022/01/28 08:48:57;;;;;;;10.15;2.42;;;;;;;;;;5047862;28;20060;-67
2022/01/28 08:51:23;;;;;;;6.07;2.30;;;;;;;;;;5048356;28;20440;-68
2022/01/28 08:53:49;;;;;;;11.77;2.30;;;;;;;;;;5048245;28;20113;-68
2022/01/28 08:56:15;;;;;;;7.18;2.70;;;;;;;;;;5048169;28;20049;-69
2022/01/28 08:58:42;;;;;;;8.32;2.38;;;;;;;;;;5047226;28;20364;-68
2022/01/28 09:01:10;;;;;;;6.72;2.10;;;;;;;;;;5048301;28;20128;-68
2022/01/28 09:03:36;;;;;;;5.22;1.70;;;;;;;;;;5047863;28;20045;-68
2022/01/28 09:06:02;;;;;;;6.38;1.90;;;;;;;;;;5058785;28;20054;-68
2022/01/28 09:08:28;;;;;;;6.57;2.10;;;;;;;;;;5068077;28;20156;-68
2022/01/28 09:10:59;;;;;;;9.35;2.72;;;;;;;;;;5067006;28;20053;-68
2022/01/28 09:13:37;;;;;;;9.63;2.05;;;;;;;;;;5058611;28;20435;-68
2022/01/28 09:16:04;;;;;;;9.18;2.65;;;;;;;;;;5056086;28;20056;-68
2022/01/28 09:18:30;;;;;;;9.57;2.97;;;;;;;;;;5058285;28;20401;-68
2022/01/28 09:20:57;;;;;;;9.15;3.17;;;;;;;;;;5058673;28;20044;-67
2022/01/28 09:23:23;;;;;;;10.20;2.90;;;;;;;;;;5044866;28;20603;-67
2022/01/28 09:25:49;;;;;;;7.75;2.50;;;;;;;;;;5055580;28;20446;-67
2022/01/28 09:28:16;;;;;;;9.95;2.80;;;;;;;;;;5056750;28;20049;-67
2022/01/28 09:30:42;;;;;;;7.68;2.67;;;;;;;;;;5059189;28;20053;-67
2022/01/28 09:33:08;;;;;;;9.32;2.58;;;;;;;;;;5052766;28;20099;-67
2022/01/28 09:35:35;;;;;;;7.45;2.55;;;;;;;;;;5058425;28;20044;-67
2022/01/28 09:38:01;;;;;;;7.88;2.90;;;;;;;;;;5065894;28;20051;-68
2022/01/28 09:40:28;;;;;;;10.75;3.78;;;;;;;;;;5049348;28;20114;-66
2022/01/28 09:42:54;;;;;;;11.93;3.55;;;;;;;;;;5054187;28;20044;-67
2022/01/28 09:45:23;;;;;;;9.70;3.20;;;;;;;;;;5062360;28;20390;-67
2022/01/28 09:47:53;;;;;;;11.80;3.20;;;;;;;;;;5061524;28;20109;-67
2022/01/28 09:50:21;;;;;;;10.15;3.22;;;;;;;;;;5059155;28;20076;-66
2022/01/28 09:52:47;;;;;;;10.73;3.28;;;;;;;;;;5056479;28;20083;-68
2022/01/28 09:55:13;;;;;;;9.88;3.40;;;;;;;;;;5057631;28;20080;-67
2022/01/28 09:57:39;;;;;;;8.35;2.83;;;;;;;;;;5063985;28;20045;-68
2022/01/28 10:00:06;;;;;;;11.35;2.88;;;;;;;;;;5060075;28;20509;-68
2022/01/28 10:02:48;;;;;;;13.70;3.25;;;;;;;;;;5047063;28;20137;-68
2022/01/28 10:05:34;;;;;;;8.82;3.22;;;;;;;;;;5054773;28;20048;-67
2022/01/28 10:08:06;;;;;;;11.07;3.13;;;;;;;;;;5054941;28;20056;-69
2022/01/28 10:10:50;;;;;;;9.27;3.17;;;;;;;;;;5057607;28;20044;-68
2022/01/28 10:13:20;;;;;;;9.15;2.83;;;;;;;;;;5055012;28;20069;-67
2022/01/28 10:16:12;;;;;;;8.52;3.63;;;;;;;;;;5055871;28;20523;-68
2022/01/28 10:18:55;;;;;;;8.50;2.88;;;;;;;;;;5041809;28;20092;-68
2022/01/28 10:21:26;;;;;;;11.27;2.88;;;;;;;;;;5062246;28;20045;-68
2022/01/28 10:24:00;;;;;;;7.20;2.80;;;;;;;;;;5052948;28;20044;-67
2022/01/28 10:26:34;;;;;;;8.88;3.15;;;;;;;;;;5054133;28;20080;-68
2022/01/28 10:29:00;;;;;;;8.27;2.80;;;;;;;;;;5053216;28;20454;-69
2022/01/28 10:31:59;;;;;;;7.30;2.60;;;;;;;;;;5057828;28;20143;-69
2022/01/28 10:34:26;;;;;;;9.82;3.33;;;;;;;;;;5055975;28;20135;-68
2022/01/28 10:37:06;;;;;;;8.38;3.10;;;;;;;;;;5052979;28;20499;-69
2022/01/28 10:39:38;;;;;;;7.45;3.10;;;;;;;;;;5058073;28;20475;-69
2022/01/28 10:42:04;;;;;;;9.65;3.08;;;;;;;;;;5059224;28;20115;-69
2022/01/28 10:44:31;;;;;;;7.60;2.95;;;;;;;;;;5060944;28;20186;-69
2022/01/28 10:47:03;;;;;;;10.30;3.13;;;;;;;;;;5058437;28;20070;-69
2022/01/28 10:49:30;;;;;;;8.00;3.42;;;;;;;;;;5052144;28;20525;-69
2022/01/28 10:52:02;;;;;;;10.05;3.42;;;;;;;;;;5058214;28;20587;-69
2022/01/28 10:54:28;;;;;;;10.63;3.08;;;;;;;;;;5060616;28;20098;-69
2022/01/28 10:56:58;;;;;;;9.75;3.30;;;;;;;;;;5057904;28;20033;-69
2022/01/28 10:59:31;;;;;;;8.70;2.88;;;;;;;;;;5064041;28;20044;-69
2022/01/28 11:01:58;;;;;;;8.00;2.75;;;;;;;;;;5052496;28;20642;-69
2022/01/28 11:04:24;;;;;;;6.78;2.83;;;;;;;;;;5059718;28;20045;-68
2022/01/28 11:06:52;;;;;;;8.35;3.03;;;;;;;;;;5053008;28;20048;-67
2022/01/28 11:09:22;;;;;;;8.80;3.40;;;;;;;;;;5055266;28;20044;-68
2022/01/28 11:11:48;;;;;;;9.05;3.00;;;;;;;;;;5058759;28;20119;-68
2022/01/28 11:14:15;;;;;;;9.02;3.30;;;;;;;;;;5054193;28;20396;-67
2022/01/28 11:16:41;;;;;;;7.43;2.55;;;;;;;;;;5060012;28;20376;-67
2022/01/28 11:19:11;;;;;;;11.23;2.97;;;;;;;;;;5057527;28;20480;-67
2022/01/28 11:21:43;;;;;;;8.07;2.78;;;;;;;;;;5061885;28;20044;-67
2022/01/28 11:24:28;;;;;;;10.82;3.42;;;;;;;;;;5057000;28;20565;-68
2022/01/28 11:26:54;;;;;;;6.95;2.53;;;;;;;;;;5056734;28;20568;-68
2022/01/28 11:29:21;;;;;;;10.40;2.75;;;;;;;;;;5058413;28;20139;-67
2022/01/28 11:31:51;;;;;;;6.68;2.70;;;;;;;;;;5057689;28;20172;-69
2022/01/28 11:34:23;;;;;;;8.10;2.88;;;;;;;;;;5063858;28;20414;-69
2022/01/28 11:36:50;;;;;;;9.82;2.72;;;;;;;;;;5070166;28;20491;-68
2022/01/28 11:39:30;;;;;;;6.25;2.80;;;;;;;;;;5056377;28;20049;-71
2022/01/28 11:42:00;;;;;;;5.85;2.47;;;;;;;;;;5049594;28;20057;-68
2022/01/28 11:44:42;;;;;;;11.30;2.83;;;;;;;;;;5050683;28;20049;-69
2022/01/28 11:47:20;;;;;;;7.07;2.80;;;;;;;;;;5032316;28;20110;-68
2022/01/28 11:49:55;;;;;;;6.55;2.38;;;;;;;;;;5048638;28;20136;-68
2022/01/28 11:52:27;;;;;;;5.90;2.53;;;;;;;;;;5049523;28;20512;-68
2022/01/28 11:54:53;;;;;;;7.30;2.60;;;;;;;;;;5049659;28;20085;-69
2022/01/28 11:57:21;;;;;;;7.93;2.63;;;;;;;;;;5058642;28;20043;-68
2022/01/28 11:59:48;;;;;;;8.68;3.25;;;;;;;;;;5052399;28;20125;-68
2022/01/28 12:02:17;;;;;;;;;;;;;;;;;;5050462;28;20055;-68
2022/01/28 12:04:44;;;;;;;5.85;2.10;;;;;;;;;;5049290;28;19988;-68
2022/01/28 12:07:15;;;;;;;6.85;2.25;;;;;;;;;;5049824;28;20048;-68
2022/01/28 12:09:46;;;;;;;7.15;2.50;;;;;;;;;;5054346;28;20451;-68
2022/01/28 12:12:14;;;;;;;8.82;2.90;;;;;;;;;;5069700;28;20045;-68
2022/01/28 12:14:54;;;;;;;8.00;2.60;;;;;;;;;;5067040;28;20085;-68
2022/01/28 12:17:33;;;;;;;5.28;2.20;;;;;;;;;;5068022;28;20152;-69
2022/01/28 12:20:11;;;;;;;5.70;2.53;;;;;;;;;;5068347;28;20052;-68
2022/01/28 12:22:56;;;;;;;6.95;2.50;;;;;;;;;;5069099;28;20049;-68
2022/01/28 12:25:37;;;;;;;5.50;2.15;;;;;;;;;;5069184;28;20047;-68
2022/01/28 12:28:11;;;;;;;7.47;2.53;;;;;;;;;;5066666;28;20110;-68
2022/01/28 12:30:37;;;;;;;8.48;3.08;;;;;;;;;;5067502;28;20466;-68
2022/01/28 12:33:03;;;;;;;8.93;2.17;;;;;;;;;;5068395;28;20117;-68
2022/01/28 12:35:29;;;;;;;9.85;2.45;;;;;;;;;;5068545;28;20121;-68
2022/01/28 12:38:02;;;;;;;8.65;2.40;;;;;;;;;;5068112;28;20135;-68
2022/01/28 12:40:35;;;;;;;7.05;2.13;;;;;;;;;;5067435;28;20055;-68
2022/01/28 12:43:01;;;;;;;8.82;2.17;;;;;;;;;;5067744;28;20059;-67
2022/01/28 12:45:27;;;;;;;10.90;2.63;;;;;;;;;;5066537;28;20049;-67
2022/01/28 12:47:53;;;;;;;8.02;2.35;;;;;;;;;;5066760;28;20078;-67
2022/01/28 12:50:20;;;;;;;8.65;2.28;;;;;;;;;;5066599;28;20048;-67
2022/01/28 12:52:47;;;;;;;6.18;2.03;;;;;;;;;;5066724;28;20127;-67
2022/01/28 12:55:13;;;;;;;8.45;2.58;;;;;;;;;;5067586;28;20048;-67
2022/01/28 12:57:43;;;;;;;5.60;2.28;;;;;;;;;;5058079;28;20463;-67
2022/01/28 13:00:09;;;;;;;8.00;2.92;;;;;;;;;;5046871;28;20071;-68
2022/01/28 13:02:35;;;;;;;8.10;2.72;;;;;;;;;;5048168;28;20048;-67
2022/01/28 13:10:32;;;;;;;6.65;2.28;;;;;;;;;;5048187;28;20494;-67
2022/01/28 13:13:06;;;;;;;5.75;2.03;;;;;;;;;;5058653;28;20052;-67
2022/01/28 13:15:32;;;;;;;5.95;2.17;;;;;;;;;;5068168;28;20060;-66
2022/01/28 13:17:59;;;;;;;6.93;2.30;;;;;;;;;;5067191;28;20131;-66
2022/01/28 13:20:31;;;;;;;5.28;1.83;;;;;;;;;;5049894;28;20135;-66
2022/01/28 13:22:58;;;;;;;7.05;2.75;;;;;;;;;;5067733;28;20044;-66
2022/01/28 13:25:25;;;;;;;6.68;2.30;;;;;;;;;;5068222;28;20363;-66
2022/01/28 13:27:57;;;;;;;6.43;2.45;;;;;;;;;;5067332;28;20397;-66
2022/01/28 13:30:23;;;;;;;6.88;2.03;;;;;;;;;;5068085;28;20048;-66
2022/01/28 13:32:51;;;;;;;6.32;2.75;;;;;;;;;;5066344;28;20060;-66
2022/01/28 13:35:22;;;;;;;5.82;2.20;;;;;;;;;;5067721;28;20456;-66
2022/01/28 13:37:50;;;;;;;7.10;2.50;;;;;;;;;;5048294;28;20444;-66
2022/01/28 13:40:19;;;;;;;5.32;1.92;;;;;;;;;;5047888;28;20045;-66
2022/01/28 13:42:58;;;;;;;6.15;2.22;;;;;;;;;;5063422;28;20078;-67
2022/01/28 13:45:31;;;;;;;7.03;2.03;;;;;;;;;;5066595;28;20071;-66
2022/01/28 13:47:58;;;;;;;7.53;2.35;;;;;;;;;;5068284;28;20063;-66
2022/01/28 13:50:35;;;;;;;5.53;2.22;;;;;;;;;;5066901;28;20044;-66
2022/01/28 13:56:04;;;;;;;4.70;1.70;;;;;;;;;;5067165;28;20048;-67
2022/01/28 13:58:41;;;;;;;6.28;1.92;;;;;;;;;;5067744;28;20131;-67
2022/01/28 14:01:11;;;;;;;6.57;2.63;;;;;;;;;;5067549;28;20062;-66
2022/01/28 14:03:47;;;;;;;4.75;1.80;;;;;;;;;;5067783;28;20044;-67
2022/01/28 14:06:17;;;;;;;5.50;1.85;;;;;;;;;;5059718;28;20045;-66
2022/01/28 14:08:52;;;;;;;6.47;1.90;;;;;;;;;;5046467;28;20049;-66
2022/01/28 14:11:29;;;;;;;6.45;1.77;;;;;;;;;;5050386;28;20087;-69
2022/01/28 14:14:14;;;;;;;8.60;1.98;;;;;;;;;;5064608;28;20052;-70
2022/01/28 14:16:40;;;;;;;5.05;1.63;;;;;;;;;;5051007;28;20136;-69
2022/01/28 14:19:07;;;;;;;5.82;1.95;;;;;;;;;;5048049;28;20082;-69
2022/01/28 14:21:33;;;;;;;8.43;2.15;;;;;;;;;;5050241;28;20463;-68
2022/01/28 14:23:59;;;;;;;8.70;1.92;;;;;;;;;;5049953;28;20095;-67
2022/01/28 14:26:25;;;;;;;5.85;1.90;;;;;;;;;;5050873;28;20049;-68
2022/01/28 14:31:24;;;;;;;10.57;2.10;;;;;;;;;;5050709;28;20107;-68
2022/01/28 14:33:50;;;;;;;11.90;2.22;;;;;;;;;;5050577;28;20053;-67
2022/01/28 14:36:17;;;;;;;12.68;2.20;;;;;;;;;;5052175;28;21617;-67
2022/01/28 14:38:46;;;;;;;7.20;1.90;;;;;;;;;;5051100;28;20041;-67
2022/01/28 14:41:12;;;;;;;6.97;2.47;;;;;;;;;;5050417;28;20088;-67
2022/01/28 14:43:38;;;;;;;4.70;1.90;;;;;;;;;;5050992;28;20055;-68
2022/01/28 14:46:04;;;;;;;12.82;2.38;;;;;;;;;;5049359;28;20450;-68
2022/01/28 14:48:31;;;;;;;5.53;1.75;;;;;;;;;;5050866;28;20168;-68
2022/01/28 14:50:57;;;;;;;9.40;2.25;;;;;;;;;;5051767;28;20094;-67
2022/01/28 14:53:23;;;;;;;6.45;1.73;;;;;;;;;;5053399;28;20142;-68
2022/01/28 14:55:49;;;;;;;5.07;1.70;;;;;;;;;;5050868;28;20132;-68
2022/01/28 14:58:15;;;;;;;5.95;2.25;;;;;;;;;;5050277;28;20037;-68
2022/01/28 15:00:41;;;;;;;11.85;2.10;;;;;;;;;;5050488;28;20103;-68
2022/01/28 15:03:10;;;;;;;6.15;1.73;;;;;;;;;;5050831;28;20045;-70
2022/01/28 15:05:36;;;;;;;8.93;1.80;;;;;;;;;;5058465;28;20055;-69
2022/01/28 15:08:10;;;;;;;5.95;1.75;;;;;;;;;;5065291;28;20040;-69
2022/01/28 15:10:38;;;;;;;5.15;1.92;;;;;;;;;;5049849;28;20111;-70
2022/01/28 15:13:05;;;;;;;6.45;2.08;;;;;;;;;;5057232;28;20144;-70
2022/01/28 15:15:31;;;;;;;6.18;1.83;;;;;;;;;;5070254;28;20049;-70
2022/01/28 15:17:57;;;;;;;5.75;1.60;;;;;;;;;;5070243;28;20050;-71
2022/01/28 15:20:27;;;;;;;4.47;1.50;;;;;;;;;;5069392;28;20508;-71
2022/01/28 15:22:54;;;;;;;5.68;1.88;;;;;;;;;;5053793;28;20112;-70
2022/01/28 15:25:20;;;;;;;7.28;1.88;;;;;;;;;;5053605;28;20045;-70
2022/01/28 15:27:46;;;;;;;4.95;1.58;;;;;;;;;;5065550;28;20048;-70
2022/01/28 15:35:57;;;;;;;3.20;1.23;;;;;;;;;;5041049;28;20055;-68
2022/01/28 15:38:23;;;;;;;5.00;1.55;;;;;;;;;;5067978;28;20458;-69
2022/01/28 15:40:49;;;;;;;5.43;1.90;;;;;;;;;;5062865;28;20395;-70
2022/01/28 15:43:15;;;;;;;7.30;1.80;;;;;;;;;;5062430;28;20131;-69
2022/01/28 15:45:46;;;;;;;10.32;2.13;;;;;;;;;;5063129;28;20045;-70
2022/01/28 15:48:15;;;;;;;5.78;1.45;;;;;;;;;;5047674;28;20064;-70
2022/01/28 15:50:42;;;;;;;6.65;1.73;;;;;;;;;;5065525;28;20036;-70
2022/01/28 15:53:08;;;;;;;5.07;2.00;;;;;;;;;;5069128;28;20481;-70
2022/01/28 15:55:34;;;;;;;4.13;1.33;;;;;;;;;;5068873;28;20162;-70
2022/01/28 15:58:00;;;;;;;6.20;1.88;;;;;;;;;;5067553;28;20067;-70
2022/01/28 16:00:26;;;;;;;5.72;1.60;;;;;;;;;;5062439;28;20048;-70
2022/01/28 16:02:52;;;;;;;3.80;1.40;;;;;;;;;;5049234;28;20098;-70
2022/01/28 16:05:18;;;;;;;4.45;1.70;;;;;;;;;;5049338;28;20131;-70
2022/01/28 16:07:44;;;;;;;4.60;1.63;;;;;;;;;;5049123;28;20056;-70
2022/01/28 16:10:17;;;;;;;5.63;1.50;;;;;;;;;;5052181;28;20036;-70
2022/01/28 16:12:57;;;;;;;7.93;1.88;;;;;;;;;;5068990;28;20406;-68
2022/01/28 16:15:27;;;;;;;5.30;1.73;;;;;;;;;;5065032;28;20044;-68